createdAt,value
2022-08-07T00:01:43.079Z,11.02
2022-08-07T00:03:51.661Z,11.05
2022-08-07T00:06:18.333Z,11.04
2022-08-07T00:08:55.878Z,10.95
2022-08-07T00:11:33.151Z,10.86
2022-08-07T00:13:59.961Z,10.90
2022-08-07T00:16:28.343Z,10.81
2022-08-07T00:18:54.989Z,10.71
2022-08-07T00:21:55.513Z,10.65
2022-08-07T00:24:09.125Z,10.59
2022-08-07T00:26:49.553Z,10.58
2022-08-07T00:29:31.250Z,10.55
2022-08-07T00:32:01.931Z,10.62
2022-08-07T00:34:29.087Z,10.56
2022-08-07T00:36:56.628Z,10.50
2022-08-07T00:39:23.248Z,10.52
2022-08-07T00:42:04.826Z,10.52
2022-08-07T00:44:33.861Z,10.53
2022-08-07T00:47:02.417Z,10.54
2022-08-07T00:50:19.916Z,10.57
2022-08-07T00:52:17.656Z,10.60
2022-08-07T00:54:46.878Z,10.60
2022-08-07T00:57:22.418Z,10.60
2022-08-07T00:59:49.297Z,10.60
2022-08-07T01:02:28.074Z,10.61
2022-08-07T01:04:58.263Z,10.64
2022-08-07T01:07:27.851Z,10.65
2022-08-07T01:10:06.851Z,10.67
2022-08-07T01:12:40.122Z,10.65
2022-08-07T01:15:20.468Z,10.68
2022-08-07T01:17:47.211Z,10.67
2022-08-07T01:20:16.568Z,10.68
2022-08-07T01:22:46.857Z,10.66
2022-08-07T01:25:53.612Z,10.67
2022-08-07T01:28:12.322Z,10.62
2022-08-07T01:30:42.066Z,10.63
2022-08-07T01:33:08.866Z,10.71
2022-08-07T01:35:53.093Z,10.72
2022-08-07T01:38:25.482Z,10.61
2022-08-07T01:40:58.930Z,10.53
2022-08-07T01:43:27.335Z,10.53
2022-08-07T01:46:05.650Z,10.49
2022-08-07T01:48:35.070Z,10.48
2022-08-07T01:51:24.157Z,10.46
2022-08-07T01:54:09.622Z,10.47
2022-08-07T01:56:56.536Z,10.34
2022-08-07T01:59:30.890Z,10.28
2022-08-07T02:02:11.408Z,10.19
2022-08-07T02:05:06.072Z,10.14
2022-08-07T02:07:50.641Z,10.06
2022-08-07T02:10:22.858Z,10.03
2022-08-07T02:12:51.224Z,9.97
2022-08-07T02:15:27.992Z,9.98
2022-08-07T02:17:56.531Z,9.91
2022-08-07T02:20:24.545Z,9.83
2022-08-07T02:22:59.722Z,9.74
2022-08-07T02:26:10.721Z,9.66
2022-08-07T02:28:24.575Z,9.68
2022-08-07T02:30:53.875Z,9.67
2022-08-07T02:33:22.147Z,9.74
2022-08-07T02:36:29.815Z,9.80
2022-08-07T02:38:39.390Z,9.86
2022-08-07T02:41:21.890Z,9.84
2022-08-07T02:43:50.159Z,9.87
2022-08-07T02:46:20.064Z,9.89
2022-08-07T02:48:55.075Z,9.91
2022-08-07T02:51:41.825Z,9.87
2022-08-07T02:54:11.285Z,9.79
2022-08-07T02:56:41.457Z,9.72
2022-08-07T02:59:11.184Z,9.66
2022-08-07T03:01:40.010Z,9.65
2022-08-07T03:04:12.941Z,9.60
2022-08-07T03:06:45.934Z,9.47
2022-08-07T03:09:44.644Z,9.43
2022-08-07T03:12:04.229Z,9.42
2022-08-07T03:14:32.493Z,9.43
2022-08-07T03:16:59.499Z,9.47
2022-08-07T03:19:28.901Z,9.48
2022-08-07T03:21:56.790Z,9.52
2022-08-07T03:24:27.188Z,9.51
2022-08-07T03:26:59.060Z,9.54
2022-08-07T03:29:29.671Z,9.51
2022-08-07T03:31:57.738Z,9.49
2022-08-07T03:34:27.855Z,9.43
2022-08-07T03:36:57.314Z,9.39
2022-08-07T03:40:00.089Z,9.39
2022-08-07T03:42:13.244Z,9.36
2022-08-07T03:44:40.298Z,9.37
2022-08-07T03:47:13.044Z,9.33
2022-08-07T03:49:42.541Z,9.35
2022-08-07T03:52:26.396Z,9.31
2022-08-07T03:54:57.386Z,9.28
2022-08-07T03:58:33.924Z,9.22
2022-08-07T04:00:20.941Z,9.17
2022-08-07T04:02:49.495Z,9.13
2022-08-07T04:05:19.326Z,9.11
2022-08-07T04:07:51.676Z,9.06
2022-08-07T04:10:19.850Z,9.05
2022-08-07T04:12:48.818Z,9.08
2022-08-07T04:15:17.633Z,9.08
2022-08-07T04:18:56.445Z,9.08
2022-08-07T04:20:32.307Z,9.13
2022-08-07T04:23:06.436Z,9.17
2022-08-07T04:25:38.982Z,9.19
2022-08-07T04:28:08.066Z,9.28
2022-08-07T04:30:43.445Z,9.17
2022-08-07T04:33:24.327Z,9.07
2022-08-07T04:35:53.963Z,8.99
2022-08-07T04:38:21.028Z,8.95
2022-08-07T04:40:52.592Z,8.92
2022-08-07T04:44:14.436Z,8.93
2022-08-07T04:46:29.626Z,8.93
2022-08-07T04:49:17.769Z,8.91
2022-08-07T04:52:03.670Z,8.94
2022-08-07T04:54:39.037Z,8.97
2022-08-07T04:58:15.844Z,8.96
2022-08-07T05:00:24.006Z,8.96
2022-08-07T05:03:17.233Z,9.03
2022-08-07T05:06:16.470Z,9.10
2022-08-07T05:09:01.230Z,9.19
2022-08-07T05:11:57.495Z,9.29
2022-08-07T05:14:55.035Z,9.37
2022-08-07T05:17:50.861Z,9.47
2022-08-07T05:20:14.009Z,9.54
2022-08-07T05:22:45.540Z,9.62
2022-08-07T05:25:25.901Z,9.71
2022-08-07T05:28:20.571Z,9.78
2022-08-07T05:30:49.843Z,9.84
2022-08-07T05:33:20.689Z,9.95
2022-08-07T05:35:49.832Z,10.09
2022-08-07T05:39:01.294Z,10.25
2022-08-07T05:41:12.349Z,10.44
2022-08-07T05:44:07.804Z,10.61
2022-08-07T05:46:31.051Z,10.81
2022-08-07T05:48:59.497Z,11.00
2022-08-07T05:51:31.810Z,11.17
2022-08-07T05:54:09.295Z,11.31
2022-08-07T05:56:55.406Z,11.46
2022-08-07T05:59:24.991Z,11.62
2022-08-07T06:01:54.657Z,11.80
2022-08-07T06:04:29.937Z,11.95
2022-08-07T06:07:03.434Z,12.12
2022-08-07T06:09:44.847Z,12.29
2022-08-07T06:12:17.875Z,12.45
2022-08-07T06:14:49.616Z,12.62
2022-08-07T06:17:19.294Z,12.77
2022-08-07T06:20:03.451Z,12.98
2022-08-07T06:22:38.727Z,13.16
2022-08-07T06:25:10.004Z,13.36
2022-08-07T06:27:59.834Z,13.62
2022-08-07T06:30:36.161Z,13.85
2022-08-07T06:33:16.269Z,14.17
2022-08-07T06:35:47.490Z,14.43
2022-08-07T06:38:19.864Z,14.63
2022-08-07T06:40:51.276Z,14.78
2022-08-07T06:43:23.742Z,14.94
2022-08-07T06:45:50.957Z,15.12
2022-08-07T06:48:25.218Z,15.40
2022-08-07T06:50:54.833Z,15.64
2022-08-07T06:55:28.451Z,15.91
2022-08-07T06:56:15.374Z,16.24
2022-08-07T07:00:13.971Z,16.72
2022-08-07T07:01:33.206Z,17.06
2022-08-07T07:04:23.748Z,17.44
2022-08-07T07:07:01.195Z,17.75
2022-08-07T07:09:31.370Z,18.25
2022-08-07T07:12:25.623Z,18.53
2022-08-07T07:15:24.010Z,19.07
2022-08-07T07:18:48.026Z,19.31
2022-08-07T07:21:13.772Z,19.39
2022-08-07T07:24:08.642Z,19.27
2022-08-07T07:26:37.771Z,19.19
2022-08-07T07:29:39.048Z,19.31
2022-08-07T07:32:01.447Z,19.11
2022-08-07T07:34:32.017Z,18.94
2022-08-07T07:37:14.472Z,18.91
2022-08-07T07:39:54.288Z,19.16
2022-08-07T07:42:25.828Z,19.36
2022-08-07T07:45:01.520Z,19.61
2022-08-07T07:47:30.508Z,19.93
2022-08-07T07:50:35.166Z,20.09
2022-08-07T07:53:13.640Z,20.24
2022-08-07T07:55:57.797Z,20.48
2022-08-07T07:58:31.050Z,20.79
2022-08-07T08:02:02.856Z,20.97
2022-08-07T08:04:09.262Z,21.14
2022-08-07T08:06:50.870Z,21.30
2022-08-07T08:09:23.626Z,21.77
2022-08-07T08:12:02.907Z,22.00
2022-08-07T08:14:36.458Z,22.56
2022-08-07T08:17:56.059Z,22.51
2022-08-07T08:20:18.733Z,23.17
2022-08-07T08:23:01.581Z,23.23
2022-08-07T08:25:50.460Z,23.52
2022-08-07T08:28:23.690Z,23.72
2022-08-07T08:31:02.024Z,23.74
2022-08-07T08:33:34.310Z,23.85
2022-08-07T08:36:03.267Z,23.95
2022-08-07T08:38:42.048Z,23.69
2022-08-07T08:41:57.351Z,24.35
2022-08-07T08:44:44.909Z,24.83
2022-08-07T08:47:52.187Z,24.86
2022-08-07T08:50:28.190Z,24.29
2022-08-07T08:53:30.341Z,24.89
2022-08-07T08:56:12.122Z,25.13
2022-08-07T08:58:50.578Z,25.20
2022-08-07T09:01:29.817Z,25.69
2022-08-07T09:04:25.943Z,25.14
2022-08-07T09:07:06.328Z,25.68
2022-08-07T09:10:20.536Z,25.76
2022-08-07T09:13:03.670Z,25.39
2022-08-07T09:16:21.620Z,25.73
2022-08-07T09:19:52.095Z,25.82
2022-08-07T09:24:31.729Z,25.41
2022-08-07T09:25:33.106Z,25.48
2022-08-07T09:29:22.332Z,25.99
2022-08-07T09:31:08.524Z,25.97
2022-08-07T09:33:58.133Z,26.15
2022-08-07T09:36:42.791Z,26.69
2022-08-07T09:39:52.530Z,26.95
2022-08-07T09:42:23.084Z,27.13
2022-08-07T09:47:52.194Z,27.36
2022-08-07T09:48:56.033Z,27.54
2022-08-07T09:52:16.092Z,27.36
2022-08-07T09:54:59.423Z,27.40
2022-08-07T09:57:50.672Z,27.20
2022-08-07T10:00:24.390Z,27.53
2022-08-07T10:02:56.609Z,27.71
2022-08-07T10:05:59.101Z,27.43
2022-08-07T10:09:03.667Z,27.88
2022-08-07T10:12:15.417Z,27.37
2022-08-07T10:15:18.618Z,27.50
2022-08-07T10:18:04.010Z,27.63
2022-08-07T10:21:19.777Z,27.55
2022-08-07T10:24:21.632Z,27.64
2022-08-07T10:27:00.340Z,27.62
2022-08-07T10:29:32.684Z,28.05
2022-08-07T10:32:52.956Z,27.86
2022-08-07T10:35:55.527Z,28.20
2022-08-07T10:38:48.845Z,27.89
2022-08-07T10:41:54.636Z,27.99
2022-08-07T10:44:39.328Z,28.02
2022-08-07T10:47:53.176Z,28.62
2022-08-07T10:50:34.143Z,28.41
2022-08-07T10:53:09.321Z,28.57
2022-08-07T10:55:47.341Z,28.40
2022-08-07T10:58:33.023Z,28.31
2022-08-07T11:01:16.871Z,28.16
2022-08-07T11:04:16.495Z,28.45
2022-08-07T11:07:03.236Z,28.06
2022-08-07T11:10:09.374Z,28.24
2022-08-07T11:12:37.962Z,28.45
2022-08-07T11:15:14.686Z,28.20
2022-08-07T11:17:50.190Z,27.95
2022-08-07T11:20:35.590Z,28.20
2022-08-07T11:23:20.831Z,28.46
2022-08-07T11:26:15.118Z,28.32
2022-08-07T11:29:05.721Z,28.43
2022-08-07T11:31:55.752Z,28.71
2022-08-07T11:34:27.054Z,28.22
2022-08-07T11:37:13.279Z,28.25
2022-08-07T11:40:08.707Z,28.42
2022-08-07T11:42:54.060Z,28.43
2022-08-07T11:45:36.140Z,28.35
2022-08-07T11:48:30.072Z,28.04
2022-08-07T11:51:50.875Z,28.23
2022-08-07T11:54:55.545Z,28.37
2022-08-07T11:58:00.792Z,28.04
2022-08-07T12:01:09.373Z,28.53
2022-08-07T12:04:27.707Z,28.70
2022-08-07T12:07:27.797Z,28.60
2022-08-07T12:10:13.770Z,28.79
2022-08-07T12:12:46.511Z,28.73
2022-08-07T12:15:57.945Z,28.95
2022-08-07T12:18:50.736Z,28.70
2022-08-07T12:21:55.948Z,28.51
2022-08-07T12:26:05.323Z,28.70
2022-08-07T12:28:57.918Z,28.41
2022-08-07T12:32:01.701Z,28.26
2022-08-07T12:34:22.714Z,27.95
2022-08-07T12:36:54.612Z,27.64
2022-08-07T12:39:43.888Z,27.86
2022-08-07T12:42:13.433Z,28.26
2022-08-07T12:44:45.177Z,28.40
2022-08-07T12:47:31.043Z,28.57
2022-08-07T12:50:34.247Z,28.17
2022-08-07T12:53:18.917Z,28.40
2022-08-07T12:56:03.225Z,28.33
2022-08-07T12:58:39.361Z,28.40
2022-08-07T13:01:07.711Z,28.06
2022-08-07T13:04:05.351Z,28.09
2022-08-07T13:07:01.170Z,27.86
2022-08-07T13:10:28.730Z,28.11
2022-08-07T13:13:47.507Z,27.93
2022-08-07T13:16:27.175Z,27.93
2022-08-07T13:19:11.387Z,27.58
2022-08-07T13:22:19.398Z,27.61
2022-08-07T13:24:56.519Z,27.47
2022-08-07T13:28:10.706Z,27.80
2022-08-07T13:30:48.901Z,27.85
2022-08-07T13:34:30.293Z,27.59
2022-08-07T13:36:26.145Z,27.58
2022-08-07T13:39:12.890Z,27.77
2022-08-07T13:41:54.892Z,27.46
2022-08-07T13:44:34.252Z,27.54
2022-08-07T13:47:09.570Z,27.40
2022-08-07T13:50:34.378Z,27.11
2022-08-07T13:52:38.181Z,26.84
2022-08-07T13:55:10.968Z,26.67
2022-08-07T13:57:48.741Z,26.34
2022-08-07T14:00:50.344Z,26.29
2022-08-07T14:03:28.935Z,26.28
2022-08-07T14:06:12.341Z,26.20
2022-08-07T14:08:53.486Z,26.04
2022-08-07T14:11:22.874Z,25.94
2022-08-07T14:13:57.912Z,25.89
2022-08-07T14:16:31.304Z,25.90
2022-08-07T14:19:01.349Z,25.97
2022-08-07T14:22:02.853Z,26.01
2022-08-07T14:24:42.699Z,25.95
2022-08-07T14:28:12.452Z,25.88
2022-08-07T14:30:11.789Z,25.79
2022-08-07T14:32:45.699Z,25.78
2022-08-07T14:35:43.089Z,25.81
2022-08-07T14:38:26.565Z,25.62
2022-08-07T14:41:14.658Z,25.60
2022-08-07T14:46:33.262Z,25.53
2022-08-07T14:49:56.018Z,25.70
2022-08-07T14:54:43.490Z,25.61
2022-08-07T14:57:15.013Z,25.59
2022-08-07T15:02:37.407Z,25.40
2022-08-07T15:07:56.515Z,25.38
2022-08-07T15:10:29.616Z,25.20
2022-08-07T15:13:05.711Z,25.13
2022-08-07T15:15:38.968Z,25.19
2022-08-07T15:18:14.310Z,25.06
2022-08-07T15:21:08.235Z,24.89
2022-08-07T15:25:15.128Z,24.88
2022-08-07T15:27:06.383Z,24.71
2022-08-07T15:32:39.699Z,24.65
2022-08-07T15:35:12.488Z,24.65
2022-08-07T15:38:17.365Z,24.66
2022-08-07T15:43:53.314Z,24.63
2022-08-07T15:49:17.525Z,24.31
2022-08-07T15:54:30.928Z,24.36
2022-08-07T15:57:04.979Z,24.31
2022-08-07T15:59:38.980Z,24.24
2022-08-07T16:02:08.503Z,24.09
2022-08-07T16:04:38.417Z,23.88
2022-08-07T16:08:31.234Z,23.75
2022-08-07T16:10:14.267Z,23.54
2022-08-07T16:13:05.350Z,23.42
2022-08-07T16:15:57.965Z,23.37
2022-08-07T16:19:09.527Z,23.40
2022-08-07T16:21:53.484Z,23.42
2022-08-07T16:24:35.620Z,23.27
2022-08-07T16:27:18.549Z,23.08
2022-08-07T16:30:29.316Z,22.86
2022-08-07T16:34:03.218Z,22.63
2022-08-07T16:36:20.129Z,22.62
2022-08-07T16:39:06.152Z,22.55
2022-08-07T16:41:49.598Z,22.36
2022-08-07T16:45:14.013Z,22.21
2022-08-07T16:47:58.790Z,22.08
2022-08-07T16:51:21.749Z,22.06
2022-08-07T16:54:27.798Z,22.03
2022-08-07T16:57:03.183Z,21.82
2022-08-07T16:59:59.234Z,21.81
2022-08-07T17:02:59.777Z,21.69
2022-08-07T17:06:29.245Z,21.60
2022-08-07T17:09:15.846Z,21.51
2022-08-07T17:12:44.154Z,21.31
2022-08-07T17:15:15.663Z,20.96
2022-08-07T17:17:48.351Z,20.81
2022-08-07T17:20:29.992Z,20.72
2022-08-07T17:23:08.730Z,20.57
2022-08-07T17:26:23.963Z,20.54
2022-08-07T17:29:04.672Z,20.48
2022-08-07T17:31:44.187Z,20.37
2022-08-07T17:34:57.175Z,20.30
2022-08-07T17:38:11.363Z,20.34
2022-08-07T17:40:34.370Z,20.45
2022-08-07T17:43:15.095Z,20.46
2022-08-07T17:45:55.311Z,20.46
2022-08-07T17:48:31.866Z,20.40
2022-08-07T17:51:04.120Z,20.36
2022-08-07T17:54:00.574Z,20.26
2022-08-07T17:56:35.405Z,20.21
2022-08-07T17:59:17.026Z,20.13
2022-08-07T18:02:10.893Z,20.04
2022-08-07T18:06:02.336Z,19.99
2022-08-07T18:08:24.261Z,19.87
2022-08-07T18:12:07.186Z,19.77
2022-08-07T18:14:19.826Z,19.64
2022-08-07T18:17:07.358Z,19.54
2022-08-07T18:21:06.884Z,19.46
2022-08-07T18:22:58.749Z,19.29
2022-08-07T18:25:40.343Z,19.20
2022-08-07T18:28:35.706Z,19.13
2022-08-07T18:31:15.175Z,18.95
2022-08-07T18:34:35.908Z,18.81
2022-08-07T18:38:58.894Z,18.65
2022-08-07T18:40:42.305Z,18.49
2022-08-07T18:43:18.552Z,18.28
2022-08-07T18:46:21.969Z,18.09
2022-08-07T18:50:30.206Z,17.94
2022-08-07T18:52:40.885Z,17.74
2022-08-07T18:55:41.632Z,17.46
2022-08-07T18:58:43.406Z,17.29
2022-08-07T19:02:19.934Z,17.10
2022-08-07T19:05:14.904Z,16.94
2022-08-07T19:08:05.183Z,16.73
2022-08-07T19:11:34.716Z,16.50
2022-08-07T19:14:17.344Z,16.31
2022-08-07T19:17:06.515Z,16.13
2022-08-07T19:19:38.725Z,15.95
2022-08-07T19:22:30.878Z,15.76
2022-08-07T19:25:05.449Z,15.59
2022-08-07T19:28:56.468Z,15.44
2022-08-07T19:31:05.749Z,15.27
2022-08-07T19:33:18.857Z,15.09
2022-08-07T19:36:01.548Z,14.99
2022-08-07T19:38:30.577Z,14.90
2022-08-07T19:41:00.606Z,14.89
2022-08-07T19:43:50.075Z,14.75
2022-08-07T19:46:26.717Z,14.65
2022-08-07T19:49:02.652Z,14.57
2022-08-07T19:51:52.251Z,14.45
2022-08-07T19:54:33.412Z,14.33
2022-08-07T19:58:01.573Z,14.21
2022-08-07T20:00:10.121Z,14.15
2022-08-07T20:02:52.164Z,14.18
2022-08-07T20:05:27.847Z,14.07
2022-08-07T20:08:00.871Z,13.99
2022-08-07T20:10:54.947Z,13.94
2022-08-07T20:13:38.472Z,13.88
2022-08-07T20:16:32.177Z,13.86
2022-08-07T20:18:59.361Z,13.82
2022-08-07T20:21:41.702Z,13.78
2022-08-07T20:24:35.840Z,13.70
2022-08-07T20:27:11.738Z,13.64
2022-08-07T20:29:58.302Z,13.60
2022-08-07T20:32:39.632Z,13.57
2022-08-07T20:35:26.575Z,13.52
2022-08-07T20:37:58.508Z,13.50
2022-08-07T20:40:33.054Z,13.45
2022-08-07T20:43:03.570Z,13.36
2022-08-07T20:46:26.476Z,13.30
2022-08-07T20:48:30.762Z,13.18
2022-08-07T20:51:03.310Z,13.16
2022-08-07T20:54:03.983Z,13.17
2022-08-07T20:56:28.853Z,13.11
2022-08-07T20:58:59.751Z,13.06
2022-08-07T21:01:29.822Z,13.00
2022-08-07T21:04:22.215Z,12.98
2022-08-07T21:06:53.716Z,12.93
2022-08-07T21:09:24.401Z,12.96
2022-08-07T21:11:55.708Z,12.92
2022-08-07T21:14:32.047Z,12.87
2022-08-07T21:18:03.822Z,12.85
2022-08-07T21:20:06.143Z,12.84
2022-08-07T21:22:45.173Z,12.78
2022-08-07T21:25:29.695Z,12.74
2022-08-07T21:28:16.786Z,12.71
2022-08-07T21:31:49.845Z,12.65
2022-08-07T21:35:01.366Z,12.56
2022-08-07T21:37:58.308Z,12.58
2022-08-07T21:40:36.115Z,12.58
2022-08-07T21:43:10.981Z,12.55
2022-08-07T21:46:08.842Z,12.57
2022-08-07T21:48:59.636Z,12.53
2022-08-07T21:51:32.361Z,12.52
2022-08-07T21:54:19.554Z,12.52
2022-08-07T21:56:57.908Z,12.51
2022-08-07T22:00:04.331Z,12.51
2022-08-07T22:03:10.093Z,12.56
2022-08-07T22:05:58.112Z,12.53
2022-08-07T22:08:33.946Z,12.55
2022-08-07T22:11:04.556Z,12.54
2022-08-07T22:13:52.922Z,12.45
2022-08-07T22:16:46.659Z,12.41
2022-08-07T22:19:29.782Z,12.35
2022-08-07T22:22:27.905Z,12.32
2022-08-07T22:25:12.302Z,12.26
2022-08-07T22:28:07.610Z,12.20
2022-08-07T22:30:51.926Z,12.14
2022-08-07T22:33:53.280Z,12.09
2022-08-07T22:36:23.728Z,12.03
2022-08-07T22:39:07.455Z,11.96
2022-08-07T22:42:04.063Z,11.95
2022-08-07T22:44:34.479Z,11.96
2022-08-07T22:47:23.227Z,12.02
2022-08-07T22:50:09.112Z,12.02
2022-08-07T22:52:46.453Z,11.95
2022-08-07T22:55:31.365Z,11.89
2022-08-07T22:58:45.337Z,11.86
2022-08-07T23:01:30.550Z,11.86
2022-08-07T23:04:57.985Z,11.83
2022-08-07T23:07:49.320Z,11.84
2022-08-07T23:10:36.433Z,11.80
2022-08-07T23:13:21.534Z,11.83
2022-08-07T23:16:46.704Z,11.83
2022-08-07T23:19:47.894Z,11.80
2022-08-07T23:22:34.723Z,11.80
2022-08-07T23:25:31.999Z,11.78
2022-08-07T23:28:22.107Z,11.76
2022-08-07T23:31:13.826Z,11.72
2022-08-07T23:34:36.359Z,11.66
2022-08-07T23:38:00.426Z,11.60
2022-08-07T23:40:39.827Z,11.66
2022-08-07T23:43:22.665Z,11.64
2022-08-07T23:46:10.491Z,11.61
2022-08-07T23:48:56.223Z,11.59
2022-08-07T23:53:00.749Z,11.63
2022-08-07T23:54:46.367Z,11.64
2022-08-07T23:57:34.875Z,11.58
